createdAt,value
2019-01-13T00:04:59.366Z,13.57
2019-01-13T00:10:08.375Z,14.82
2019-01-13T00:15:17.326Z,15.03
2019-01-13T00:20:26.347Z,15.08
2019-01-13T00:25:35.282Z,14.49
2019-01-13T00:30:44.246Z,14.99
2019-01-13T00:35:53.186Z,13.75
2019-01-13T00:41:02.205Z,14.98
2019-01-13T00:46:11.126Z,14.49
2019-01-13T00:51:20.118Z,14.17
2019-01-13T00:56:29.067Z,13.94
2019-01-13T01:01:38.043Z,12.88
2019-01-13T01:06:46.987Z,13.72
2019-01-13T01:11:55.938Z,12.78
2019-01-13T01:17:04.886Z,13.25
2019-01-13T01:22:13.822Z,13.12
2019-01-13T01:27:22.794Z,14.08
2019-01-13T01:32:31.727Z,14.97
2019-01-13T01:37:40.742Z,14.71
2019-01-13T01:42:49.694Z,14.08
2019-01-13T01:47:58.732Z,13.86
2019-01-13T01:53:07.671Z,13.51
2019-01-13T01:58:16.605Z,14.23
2019-01-13T02:03:25.550Z,15.13
2019-01-13T02:08:34.502Z,14.79
2019-01-13T02:13:43.438Z,15.25
2019-01-13T02:18:52.390Z,16.29
2019-01-13T02:24:01.346Z,15.33
2019-01-13T02:29:10.354Z,16.27
2019-01-13T02:34:19.282Z,17.22
2019-01-13T02:39:28.247Z,16.65
2019-01-13T02:44:37.185Z,17.19
2019-01-13T02:49:46.158Z,17.61
2019-01-13T02:54:55.084Z,18.73
2019-01-13T03:00:04.040Z,18.85
2019-01-13T03:05:12.978Z,19.57
2019-01-13T03:10:21.922Z,20.95
2019-01-13T03:15:30.875Z,19.01
2019-01-13T03:20:39.816Z,18.85
2019-01-13T03:25:48.760Z,18.47
2019-01-13T03:31:10.675Z,15.99
2019-01-13T03:36:06.189Z,16.70
2019-01-13T03:41:15.119Z,14.58
2019-01-13T03:46:24.070Z,15.31
2019-01-13T03:51:33.022Z,13.88
2019-01-13T03:56:41.954Z,14.28
2019-01-13T04:01:50.882Z,13.05
2019-01-13T04:06:59.828Z,12.11
2019-01-13T04:12:08.767Z,11.98
2019-01-13T04:17:17.769Z,11.93
2019-01-13T04:22:26.711Z,12.29
2019-01-13T04:27:35.679Z,12.82
2019-01-13T04:32:44.615Z,13.52
2019-01-13T04:37:53.600Z,13.80
2019-01-13T04:43:02.541Z,13.12
2019-01-13T04:48:11.569Z,13.47
2019-01-13T04:53:20.514Z,12.52
2019-01-13T04:58:29.475Z,12.69
2019-01-13T05:03:38.436Z,12.72
2019-01-13T05:08:47.373Z,12.76
2019-01-13T05:13:56.350Z,12.25
2019-01-13T05:19:05.286Z,12.94
2019-01-13T05:24:14.267Z,13.66
2019-01-13T05:29:23.214Z,14.25
2019-01-13T05:34:32.167Z,15.61
2019-01-13T05:39:41.108Z,15.93
2019-01-13T05:44:50.110Z,16.68
2019-01-13T05:49:59.051Z,15.84
2019-01-13T05:55:08.034Z,15.21
2019-01-13T06:00:16.993Z,15.37
2019-01-13T06:05:25.942Z,16.15
2019-01-13T06:10:34.919Z,15.26
2019-01-13T06:15:43.862Z,16.19
2019-01-13T06:20:52.819Z,14.88
2019-01-13T06:26:01.789Z,13.90
2019-01-13T06:31:10.710Z,15.35
2019-01-13T06:36:19.643Z,15.66
2019-01-13T06:41:28.602Z,15.77
2019-01-13T06:46:37.547Z,16.94
2019-01-13T06:51:46.522Z,15.71
2019-01-13T06:56:55.551Z,14.47
2019-01-13T07:02:04.467Z,14.96
2019-01-13T07:07:13.447Z,14.67
2019-01-13T07:12:22.378Z,13.72
2019-01-13T07:17:31.330Z,13.22
2019-01-13T07:22:40.329Z,13.11
2019-01-13T07:27:49.254Z,11.95
2019-01-13T07:32:58.215Z,11.69
2019-01-13T07:38:07.142Z,12.58
2019-01-13T07:43:16.134Z,11.20
2019-01-13T07:48:25.083Z,9.96
2019-01-13T07:53:34.118Z,9.59
2019-01-13T07:58:43.073Z,8.98
2019-01-13T08:03:52.017Z,8.48
2019-01-13T08:09:00.970Z,7.20
2019-01-13T08:14:09.966Z,7.04
2019-01-13T08:19:18.912Z,7.01
2019-01-13T08:24:29.101Z,7.17
2019-01-13T08:29:36.486Z,6.59
2019-01-13T08:34:45.599Z,6.79
2019-01-13T08:39:54.551Z,6.86
2019-01-13T08:45:03.543Z,7.34
2019-01-13T08:50:12.487Z,7.21
2019-01-13T08:55:21.458Z,6.97
2019-01-13T09:00:28.918Z,5.84
2019-01-13T09:05:37.954Z,6.22
2019-01-13T09:10:46.947Z,6.38
2019-01-13T09:15:55.899Z,6.59
2019-01-13T09:21:04.855Z,5.85
2019-01-13T09:26:13.822Z,6.57
2019-01-13T09:31:22.746Z,6.55
2019-01-13T09:36:31.794Z,6.47
2019-01-13T09:41:40.741Z,6.05
2019-01-13T09:46:49.718Z,6.44
2019-01-13T09:51:58.678Z,6.62
2019-01-13T09:57:07.689Z,7.30
2019-01-13T10:02:16.605Z,7.49
2019-01-13T10:07:25.652Z,7.74
2019-01-13T10:12:34.598Z,8.23
2019-01-13T10:17:43.567Z,8.45
2019-01-13T10:22:52.506Z,8.67
2019-01-13T10:28:01.549Z,9.61
2019-01-13T10:33:10.494Z,9.41
2019-01-13T10:38:19.439Z,10.50
2019-01-13T10:43:28.374Z,10.34
2019-01-13T10:48:37.419Z,10.24
2019-01-13T10:53:46.364Z,10.21
2019-01-13T10:58:55.342Z,9.49
2019-01-13T11:04:04.290Z,8.99
2019-01-13T11:09:13.323Z,8.35
2019-01-13T11:14:22.274Z,8.91
2019-01-13T11:19:31.330Z,8.41
2019-01-13T11:24:40.261Z,8.00
2019-01-13T11:29:49.316Z,7.94
2019-01-13T11:34:58.242Z,7.92
2019-01-13T11:40:07.248Z,7.41
2019-01-13T11:45:16.162Z,6.91
2019-01-13T11:50:25.275Z,7.06
2019-01-13T11:55:34.204Z,6.91
2019-01-13T12:00:43.194Z,6.41
2019-01-13T12:05:52.143Z,6.70
2019-01-13T12:11:01.106Z,7.45
2019-01-13T12:16:10.058Z,5.59
2019-01-13T12:21:19.054Z,7.33
2019-01-13T12:26:28.006Z,6.68
2019-01-13T12:31:36.986Z,7.08
2019-01-13T12:36:45.952Z,7.15
2019-01-13T12:41:54.886Z,7.39
2019-01-13T12:47:03.809Z,7.12
2019-01-13T12:52:12.788Z,6.59
2019-01-13T12:57:21.750Z,6.04
2019-01-13T13:02:30.682Z,6.64
2019-01-13T13:07:39.638Z,6.09
2019-01-13T13:12:48.607Z,6.01
2019-01-13T13:17:57.579Z,5.73
2019-01-13T13:23:06.810Z,5.66
2019-01-13T13:28:15.757Z,5.66
2019-01-13T13:33:24.800Z,5.71
2019-01-13T13:38:33.750Z,5.92
2019-01-13T13:43:42.782Z,5.77
2019-01-13T13:48:52.981Z,5.74
2019-01-13T13:54:00.200Z,5.55
2019-01-13T13:59:09.138Z,5.54
2019-01-13T14:04:18.147Z,5.36
2019-01-13T14:09:27.107Z,5.72
2019-01-13T14:14:36.118Z,5.09
2019-01-13T14:19:46.099Z,5.29
2019-01-13T14:30:04.102Z,5.30
2019-01-13T14:35:13.152Z,5.59
2019-01-13T14:40:22.112Z,6.21
2019-01-13T14:45:31.079Z,5.89
2019-01-13T14:50:40.003Z,5.90
2019-01-13T14:55:49.001Z,5.52
2019-01-13T15:06:06.934Z,5.78
2019-01-13T15:11:15.862Z,5.94
2019-01-13T15:16:24.855Z,6.08
2019-01-13T15:21:33.807Z,5.62
2019-01-13T15:26:42.814Z,5.13
2019-01-13T15:31:51.736Z,5.01
2019-01-13T15:37:00.726Z,4.90
2019-01-13T15:42:09.650Z,4.78
2019-01-13T15:47:18.675Z,5.19
2019-01-13T15:52:27.602Z,5.99
2019-01-13T15:57:36.582Z,5.02
2019-01-13T16:02:45.510Z,5.73
2019-01-13T16:07:54.566Z,4.76
2019-01-13T16:13:03.514Z,5.24
2019-01-13T16:18:12.541Z,5.13
2019-01-13T16:23:21.510Z,5.46
2019-01-13T16:28:30.532Z,5.24
2019-01-13T16:33:39.487Z,4.92
2019-01-13T16:38:48.550Z,4.52
2019-01-13T16:43:57.505Z,5.00
2019-01-13T16:49:06.594Z,4.21
2019-01-13T16:54:15.527Z,4.83
2019-01-13T16:59:24.582Z,4.16
2019-01-13T17:04:33.533Z,4.18
2019-01-13T17:09:42.558Z,4.42
2019-01-13T17:14:51.522Z,4.51
2019-01-13T17:20:00.623Z,4.18
2019-01-13T17:25:09.570Z,4.75
2019-01-13T17:30:18.563Z,4.41
2019-01-13T17:35:27.506Z,4.76
2019-01-13T17:40:36.495Z,4.47
2019-01-13T17:45:45.407Z,4.75
2019-01-13T17:50:54.370Z,3.84
2019-01-13T17:56:03.366Z,4.01
2019-01-13T18:01:12.310Z,4.44
2019-01-13T18:06:21.273Z,4.75
2019-01-13T18:11:30.255Z,4.80
2019-01-13T18:16:39.195Z,4.82
2019-01-13T18:21:48.179Z,5.71
2019-01-13T18:26:57.140Z,6.53
2019-01-13T18:32:06.143Z,6.10
2019-01-13T18:37:15.119Z,2.63
2019-01-13T18:42:24.086Z,2.01
2019-01-13T18:47:33.038Z,1.69
2019-01-13T18:52:42.048Z,2.44
2019-01-13T18:57:50.994Z,2.47
2019-01-13T19:03:00.084Z,2.43
2019-01-13T19:08:09.036Z,1.69
2019-01-13T19:13:19.485Z,2.95
2019-01-13T19:18:18.471Z,3.41
2019-01-13T19:23:27.455Z,4.54
2019-01-13T19:28:36.390Z,5.36
2019-01-13T19:33:45.394Z,4.97
2019-01-13T19:38:54.343Z,4.36
2019-01-13T19:44:03.470Z,4.65
2019-01-13T19:49:12.430Z,4.81
2019-01-13T19:54:21.395Z,4.81
2019-01-13T19:59:32.329Z,4.47
2019-01-13T20:04:31.350Z,4.78
2019-01-13T20:09:40.299Z,4.06
2019-01-13T20:14:49.313Z,4.76
2019-01-13T20:19:58.258Z,3.67
2019-01-13T20:25:07.286Z,4.40
2019-01-13T20:30:16.222Z,3.61
2019-01-13T20:35:25.299Z,4.69
2019-01-13T20:40:34.237Z,3.90
2019-01-13T20:45:43.287Z,5.06
2019-01-13T20:50:52.211Z,4.19
2019-01-13T20:56:01.269Z,5.24
2019-01-13T21:01:10.162Z,4.11
2019-01-13T21:06:17.695Z,6.14
2019-01-13T21:11:26.667Z,4.55
2019-01-13T21:16:35.746Z,4.92
2019-01-13T21:21:44.714Z,5.28
2019-01-13T21:26:53.806Z,4.27
2019-01-13T21:32:02.751Z,4.76
2019-01-13T21:37:11.699Z,5.02
2019-01-13T21:42:20.726Z,5.09
2019-01-13T21:47:29.679Z,5.28
2019-01-13T21:52:38.735Z,5.19
2019-01-13T21:57:47.704Z,5.49
2019-01-13T22:02:56.670Z,5.21
2019-01-13T22:08:05.617Z,5.12
2019-01-13T22:13:14.599Z,4.67
2019-01-13T22:18:23.553Z,4.22
2019-01-13T22:23:32.659Z,4.91
2019-01-13T22:28:41.615Z,5.06
2019-01-13T22:33:50.603Z,5.40
2019-01-13T22:38:59.554Z,4.56
2019-01-13T22:44:08.587Z,5.29
2019-01-13T22:49:17.904Z,4.88
2019-01-13T22:54:26.945Z,4.66
2019-01-13T22:59:35.900Z,5.34
2019-01-13T23:04:44.896Z,5.28
2019-01-13T23:09:53.801Z,5.03
2019-01-13T23:15:02.906Z,4.99
2019-01-13T23:20:11.863Z,4.83
2019-01-13T23:25:20.822Z,5.43
2019-01-13T23:30:29.771Z,5.16
2019-01-13T23:35:38.719Z,5.48
2019-01-13T23:40:47.667Z,4.49
2019-01-13T23:45:56.622Z,4.44
2019-01-13T23:51:05.583Z,5.16
2019-01-13T23:56:14.522Z,4.03
